Time;durP1;ratioP1;P1;durP2;ratioP2;P2;SDS_P1;SDS_P2;PMS_P1;PMS_P2;Temp;Humidity;BMP_temperature;BMP_pressure;BME280_temperature;BME280_humidity;BME280_pressure;Samples;Min_cycle;Max_cycle;Signal;HPM_P1;HPM_P2
2023/09/17 00:02:12;;;;;;;7.07;6.20;;;24.20;96.70;;;;;;5084958;28;20043;-80
2023/09/17 00:04:41;;;;;;;8.27;6.05;;;24.20;96.70;;;;;;5083369;28;20044;-81
2023/09/17 00:07:09;;;;;;;7.78;5.93;;;24.20;96.70;;;;;;5084573;28;20101;-79
2023/09/17 00:09:38;;;;;;;9.32;6.07;;;24.10;96.70;;;;;;5083518;28;20051;-79
2023/09/17 00:12:07;;;;;;;8.90;6.32;;;24.10;96.70;;;;;;5084611;28;20064;-80
2023/09/17 00:14:36;;;;;;;10.15;6.38;;;24.10;96.70;;;;;;5087813;28;20039;-79
2023/09/17 00:17:06;;;;;;;7.90;5.68;;;24.10;96.70;;;;;;5094742;28;20516;-81
2023/09/17 00:19:34;;;;;;;8.70;6.13;;;24.10;96.70;;;;;;5084337;28;20121;-81
2023/09/17 00:22:04;;;;;;;7.40;5.35;;;24.10;96.70;;;;;;5066945;28;20448;-80
2023/09/17 00:24:33;;;;;;;6.20;5.60;;;24.10;96.70;;;;;;5082964;28;20048;-80
2023/09/17 00:27:01;;;;;;;9.00;5.50;;;24.10;96.70;;;;;;5095316;28;20036;-82
2023/09/17 00:29:30;;;;;;;6.60;5.38;;;24.10;96.70;;;;;;5087568;28;20043;-80
2023/09/17 00:31:58;;;;;;;11.93;5.80;;;24.10;96.70;;;;;;5086570;28;20040;-81
2023/09/17 00:34:29;;;;;;;7.07;5.20;;;24.10;96.70;;;;;;5095579;28;20044;-81
2023/09/17 00:36:57;;;;;;;8.65;5.13;;;24.10;96.70;;;;;;5087847;28;20095;-81
2023/09/17 00:39:27;;;;;;;8.07;5.65;;;24.10;96.70;;;;;;5093992;28;20040;-79
2023/09/17 00:41:55;;;;;;;6.70;5.13;;;24.00;96.70;;;;;;5086661;28;20043;-80
2023/09/17 00:44:24;;;;;;;7.47;5.32;;;24.10;96.70;;;;;;5085453;28;20043;-80
2023/09/17 00:46:52;;;;;;;6.63;5.53;;;24.00;96.70;;;;;;5088080;28;21400;-80
2023/09/17 00:49:22;;;;;;;5.93;5.32;;;24.00;96.70;;;;;;5085963;28;20144;-79
2023/09/17 00:51:51;;;;;;;6.03;5.40;;;24.10;96.70;;;;;;5086545;28;20032;-79
2023/09/17 00:54:22;;;;;;;5.88;5.32;;;24.00;96.70;;;;;;5088236;28;20040;-81
2023/09/17 00:56:51;;;;;;;8.90;5.53;;;24.00;96.70;;;;;;5088788;28;20052;-79
2023/09/17 00:59:20;;;;;;;6.07;5.45;;;24.00;96.70;;;;;;5073276;28;20072;-81
2023/09/17 01:01:49;;;;;;;6.63;5.97;;;24.00;96.70;;;;;;5089807;28;20055;-80
2023/09/17 01:04:19;;;;;;;9.18;6.43;;;24.10;96.70;;;;;;5064974;28;20075;-81
2023/09/17 01:06:49;;;;;;;7.70;5.80;;;24.10;96.70;;;;;;5084907;28;20570;-80
2023/09/17 01:09:21;;;;;;;6.93;6.07;;;24.10;96.70;;;;;;5066253;28;20053;-77
2023/09/17 01:11:50;;;;;;;8.75;5.63;;;24.10;96.70;;;;;;5081945;28;20048;-82
2023/09/17 01:14:19;;;;;;;8.23;5.90;;;24.00;96.70;;;;;;5087242;28;20028;-82
2023/09/17 01:16:47;;;;;;;7.38;5.32;;;24.00;96.70;;;;;;5087572;28;20044;-82
2023/09/17 01:19:22;;;;;;;7.75;5.38;;;24.00;96.70;;;;;;5085453;28;20516;-82
2023/09/17 01:22:01;;;;;;;8.23;5.97;;;24.00;96.70;;;;;;5085742;28;20056;-82
2023/09/17 01:24:43;;;;;;;7.57;6.53;;;24.00;96.70;;;;;;5085033;28;20719;-81
2023/09/17 01:27:14;;;;;;;10.05;6.32;;;23.90;96.70;;;;;;5085245;28;20428;-82
2023/09/17 01:29:44;;;;;;;8.68;5.68;;;23.90;96.70;;;;;;5085167;28;20044;-82
2023/09/17 01:32:12;;;;;;;7.28;5.95;;;23.90;96.70;;;;;;5068953;28;20036;-81
2023/09/17 01:34:42;;;;;;;8.98;5.63;;;23.80;96.70;;;;;;5069854;28;20048;-80
2023/09/17 01:37:17;;;;;;;7.18;6.10;;;23.80;96.70;;;;;;5096423;28;20080;-81
2023/09/17 01:39:56;;;;;;;6.93;6.00;;;23.80;96.70;;;;;;5090236;28;20052;-79
2023/09/17 01:42:28;;;;;;;7.40;5.70;;;23.70;96.70;;;;;;5085139;28;20060;-81
2023/09/17 01:44:58;;;;;;;9.63;6.05;;;23.70;96.70;;;;;;5096291;28;20063;-82
2023/09/17 01:47:28;;;;;;;9.27;6.22;;;23.70;96.70;;;;;;5085888;28;20075;-82
2023/09/17 01:49:57;;;;;;;9.63;6.32;;;23.70;96.70;;;;;;5065256;28;20075;-80
2023/09/17 01:52:26;;;;;;;8.38;5.68;;;23.70;96.70;;;;;;5085447;28;20044;-81
2023/09/17 01:54:54;;;;;;;7.75;5.80;;;23.70;96.70;;;;;;5069951;28;20056;-79
2023/09/17 01:57:23;;;;;;;9.60;5.82;;;23.70;96.70;;;;;;5086307;28;20043;-82
2023/09/17 01:59:52;;;;;;;6.63;5.28;;;23.60;96.70;;;;;;5078778;28;20485;-80
2023/09/17 02:02:21;;;;;;;6.97;5.50;;;23.60;96.70;;;;;;5078840;28;20040;-81
2023/09/17 02:04:50;;;;;;;9.52;5.47;;;23.60;96.70;;;;;;5125737;27;20131;-81
2023/09/17 02:07:19;;;;;;;6.82;5.68;;;23.50;96.70;;;;;;5087002;28;20048;-81
2023/09/17 02:09:47;;;;;;;11.10;6.20;;;23.50;96.70;;;;;;5093575;28;20048;-81
2023/09/17 02:12:15;;;;;;;9.95;6.10;;;23.40;96.70;;;;;;5093072;28;20036;-80
2023/09/17 02:14:43;;;;;;;8.43;6.07;;;23.40;96.70;;;;;;5068145;28;20039;-80
2023/09/17 02:17:14;;;;;;;10.82;6.28;;;23.50;96.70;;;;;;5064155;28;20616;-81
2023/09/17 02:19:44;;;;;;;8.23;6.00;;;23.40;96.70;;;;;;5085406;28;20044;-82
2023/09/17 02:22:12;;;;;;;8.48;5.57;;;23.40;96.70;;;;;;5067889;28;20036;-81
2023/09/17 02:24:40;;;;;;;8.00;6.15;;;23.40;96.70;;;;;;5078710;28;20667;-81
2023/09/17 02:27:08;;;;;;;8.02;6.30;;;23.40;96.70;;;;;;5084565;28;20051;-80
2023/09/17 02:29:36;;;;;;;8.23;5.57;;;23.40;96.70;;;;;;5084519;28;20125;-80
2023/09/17 02:32:05;;;;;;;6.28;5.65;;;23.40;96.70;;;;;;5085631;28;20040;-79
2023/09/17 02:34:35;;;;;;;8.30;5.70;;;23.50;96.70;;;;;;5072460;28;20052;-79
2023/09/17 02:37:03;;;;;;;7.40;5.80;;;23.50;96.70;;;;;;5067680;28;20114;-80
2023/09/17 02:39:31;;;;;;;9.32;6.00;;;23.50;96.70;;;;;;5068296;28;20044;-79
2023/09/17 02:42:00;;;;;;;8.50;6.25;;;23.40;96.70;;;;;;5083007;28;20584;-79
2023/09/17 02:44:28;;;;;;;8.35;6.25;;;23.40;96.70;;;;;;5063952;28;20051;-80
2023/09/17 02:46:57;;;;;;;8.45;6.05;;;23.40;96.70;;;;;;5081563;28;20052;-82
2023/09/17 02:49:26;;;;;;;8.38;5.97;;;23.30;96.70;;;;;;5082081;28;20048;-80
2023/09/17 02:51:56;;;;;;;8.35;5.80;;;23.30;96.70;;;;;;5067495;28;20537;-81
2023/09/17 02:54:25;;;;;;;12.18;6.20;;;23.30;96.70;;;;;;5084503;28;20468;-79
2023/09/17 02:56:53;;;;;;;12.73;5.78;;;23.30;96.70;;;;;;5084033;28;20042;-79
2023/09/17 02:59:21;;;;;;;9.45;6.15;;;23.30;96.70;;;;;;5067383;28;20080;-80
2023/09/17 03:01:49;;;;;;;6.20;5.10;;;23.30;96.70;;;;;;5060481;28;20081;-78
2023/09/17 03:04:17;;;;;;;9.05;5.97;;;23.30;96.70;;;;;;5085584;28;20174;-78
2023/09/17 03:06:45;;;;;;;7.72;5.43;;;23.30;96.70;;;;;;5085992;28;20072;-79
2023/09/17 03:09:18;;;;;;;9.88;6.53;;;23.30;96.70;;;;;;5067229;28;20051;-80
2023/09/17 03:11:49;;;;;;;8.65;5.63;;;23.30;96.70;;;;;;5068064;28;20075;-81
2023/09/17 03:14:18;;;;;;;8.30;5.47;;;23.20;96.70;;;;;;5084281;28;20056;-80
2023/09/17 03:16:46;;;;;;;6.45;5.75;;;23.20;96.70;;;;;;5083573;28;20040;-79
2023/09/17 03:19:19;;;;;;;8.70;6.00;;;23.20;96.70;;;;;;5066458;28;20048;-79
2023/09/17 03:21:48;;;;;;;6.68;5.63;;;23.20;96.70;;;;;;5083806;28;20048;-80
2023/09/17 03:24:17;;;;;;;8.50;5.20;;;23.20;96.70;;;;;;5083148;28;20115;-79
2023/09/17 03:26:45;;;;;;;7.90;5.30;;;23.20;96.70;;;;;;5084345;28;20047;-80
2023/09/17 03:29:14;;;;;;;8.20;5.95;;;23.20;96.70;;;;;;5083303;28;20055;-79
2023/09/17 03:31:45;;;;;;;6.85;5.30;;;23.10;96.70;;;;;;5082932;28;20044;-79
2023/09/17 03:34:14;;;;;;;8.43;5.53;;;23.10;96.70;;;;;;5062528;28;20437;-80
2023/09/17 03:36:42;;;;;;;7.32;5.35;;;23.20;96.70;;;;;;5065351;28;20573;-81
2023/09/17 03:39:12;;;;;;;8.30;5.70;;;23.20;96.70;;;;;;5066752;28;20143;-80
2023/09/17 03:41:42;;;;;;;7.10;5.63;;;23.20;96.70;;;;;;5084874;28;20451;-80
2023/09/17 03:44:10;;;;;;;9.35;5.63;;;23.20;96.70;;;;;;5083182;28;20131;-79
2023/09/17 03:46:40;;;;;;;8.00;5.10;;;23.10;96.70;;;;;;5083450;28;20047;-80
2023/09/17 03:49:09;;;;;;;6.88;6.03;;;23.10;96.70;;;;;;5082811;28;20047;-80
2023/09/17 03:51:37;;;;;;;6.53;5.07;;;23.10;96.70;;;;;;5079874;28;20041;-78
2023/09/17 03:54:05;;;;;;;6.13;5.53;;;23.10;96.70;;;;;;5082909;28;20036;-79
2023/09/17 03:56:34;;;;;;;8.52;5.30;;;23.10;96.70;;;;;;5083133;28;20109;-80
2023/09/17 03:59:04;;;;;;;8.18;5.75;;;23.10;96.70;;;;;;5082855;28;20052;-80
2023/09/17 04:01:32;;;;;;;9.50;6.03;;;23.10;96.70;;;;;;5084132;28;20074;-80
2023/09/17 04:04:01;;;;;;;6.35;5.10;;;23.10;96.70;;;;;;5070628;28;20470;-80
2023/09/17 04:06:30;;;;;;;7.10;5.25;;;23.10;96.70;;;;;;5070942;28;20524;-80
2023/09/17 04:08:58;;;;;;;9.05;5.35;;;23.10;96.70;;;;;;5088260;28;20040;-81
2023/09/17 04:11:28;;;;;;;5.75;4.88;;;23.10;96.70;;;;;;5087653;28;20044;-80
2023/09/17 04:13:56;;;;;;;7.75;5.80;;;23.10;96.70;;;;;;5087458;28;20048;-81
2023/09/17 04:16:26;;;;;;;6.25;5.50;;;23.10;96.70;;;;;;5067200;28;20060;-80
2023/09/17 04:18:54;;;;;;;6.20;5.60;;;23.10;96.70;;;;;;5069957;28;20040;-80
2023/09/17 04:21:23;;;;;;;7.55;5.07;;;23.20;96.70;;;;;;5088861;28;20048;-81
2023/09/17 04:23:51;;;;;;;7.07;5.70;;;23.10;96.70;;;;;;5087014;28;20044;-81
2023/09/17 04:26:24;;;;;;;6.65;5.57;;;23.10;96.70;;;;;;5086277;28;20555;-79
2023/09/17 04:28:52;;;;;;;10.50;5.93;;;23.10;96.70;;;;;;5086471;28;20044;-81
2023/09/17 04:31:21;;;;;;;7.88;5.45;;;23.10;96.70;;;;;;5086269;28;20113;-81
2023/09/17 04:33:51;;;;;;;8.30;6.15;;;23.00;96.70;;;;;;5086620;28;20051;-81
2023/09/17 04:36:19;;;;;;;6.72;5.43;;;23.00;96.70;;;;;;5098728;28;20060;-80
2023/09/17 04:38:51;;;;;;;5.65;5.15;;;23.00;96.70;;;;;;5082418;28;20093;-79
2023/09/17 04:41:19;;;;;;;12.40;6.47;;;23.10;96.70;;;;;;5069720;28;20071;-80
2023/09/17 04:43:47;;;;;;;8.00;6.45;;;23.10;96.70;;;;;;5084139;28;20064;-80
2023/09/17 04:46:16;;;;;;;8.38;5.43;;;23.10;96.70;;;;;;5084854;28;20241;-80
2023/09/17 04:48:51;;;;;;;8.70;5.85;;;23.10;96.70;;;;;;5085967;28;20482;-80
2023/09/17 04:51:20;;;;;;;6.43;5.45;;;23.10;96.70;;;;;;5086463;28;20549;-79
2023/09/17 04:53:50;;;;;;;7.15;5.88;;;23.10;96.70;;;;;;5069644;28;20491;-81
2023/09/17 04:56:19;;;;;;;6.82;5.40;;;23.20;96.70;;;;;;5102838;28;20072;-80
2023/09/17 04:58:48;;;;;;;11.13;5.68;;;23.10;96.70;;;;;;5074899;28;20496;-80
2023/09/17 05:01:16;;;;;;;7.88;6.00;;;23.20;96.70;;;;;;5086162;28;20505;-79
2023/09/17 05:03:46;;;;;;;7.75;5.82;;;23.20;96.70;;;;;;5069042;28;20071;-79
2023/09/17 05:06:17;;;;;;;6.78;5.88;;;23.20;96.70;;;;;;5085765;28;20040;-79
2023/09/17 05:08:46;;;;;;;7.88;6.35;;;23.10;96.70;;;;;;5069196;28;20048;-80
2023/09/17 05:11:15;;;;;;;9.55;6.40;;;23.20;96.70;;;;;;5084692;28;20116;-81
2023/09/17 05:13:44;;;;;;;8.48;5.60;;;23.20;96.70;;;;;;5085417;28;20684;-80
2023/09/17 05:16:12;;;;;;;8.73;5.70;;;23.20;96.70;;;;;;5069005;28;20079;-79
2023/09/17 05:18:40;;;;;;;6.65;5.43;;;23.20;96.70;;;;;;5085850;28;20072;-80
2023/09/17 05:21:08;;;;;;;7.88;5.28;;;23.20;96.70;;;;;;5068617;28;20093;-81
2023/09/17 05:23:38;;;;;;;6.35;5.30;;;23.20;96.70;;;;;;5086990;28;20072;-81
2023/09/17 05:26:06;;;;;;;8.27;5.90;;;23.20;96.70;;;;;;5080813;28;20545;-80
2023/09/17 05:28:35;;;;;;;12.93;6.78;;;23.20;96.70;;;;;;5087283;28;20048;-80
2023/09/17 05:31:03;;;;;;;7.60;5.35;;;23.20;96.70;;;;;;5085829;28;20051;-80
2023/09/17 05:33:32;;;;;;;9.25;6.03;;;23.20;96.70;;;;;;5084549;28;20143;-81
2023/09/17 05:36:03;;;;;;;8.93;5.55;;;23.20;96.70;;;;;;5084681;28;20056;-80
2023/09/17 05:38:31;;;;;;;9.23;6.18;;;23.20;96.70;;;;;;5086008;28;20078;-80
2023/09/17 05:41:01;;;;;;;8.40;6.05;;;23.30;96.70;;;;;;5085494;28;20105;-79
2023/09/17 05:43:29;;;;;;;7.18;6.00;;;23.30;96.70;;;;;;5084781;28;20048;-80
2023/09/17 05:45:58;;;;;;;7.18;5.82;;;23.30;96.70;;;;;;5068939;28;20043;-80
2023/09/17 05:48:40;;;;;;;7.78;5.45;;;23.40;96.70;;;;;;5062717;28;20452;-80
2023/09/17 05:51:09;;;;;;;6.93;5.85;;;23.50;96.70;;;;;;5068032;28;20814;-80
2023/09/17 05:53:38;;;;;;;8.52;6.07;;;23.40;96.70;;;;;;5068134;28;20483;-81
2023/09/17 05:56:08;;;;;;;7.50;5.32;;;23.50;96.70;;;;;;5067465;28;20604;-81
2023/09/17 05:58:36;;;;;;;6.97;5.60;;;23.50;96.70;;;;;;5083744;28;20052;-80
2023/09/17 06:01:07;;;;;;;9.55;5.78;;;23.50;96.70;;;;;;5084124;28;20052;-80
2023/09/17 06:03:35;;;;;;;6.35;5.75;;;23.50;96.70;;;;;;5085987;28;20044;-79
2023/09/17 06:06:04;;;;;;;7.03;5.78;;;23.50;96.70;;;;;;5071885;28;20052;-81
2023/09/17 06:08:32;;;;;;;7.30;6.40;;;23.60;96.70;;;;;;5082634;28;20505;-81
2023/09/17 06:11:01;;;;;;;7.07;5.78;;;23.60;96.70;;;;;;5067732;28;20646;-80
2023/09/17 06:13:31;;;;;;;8.98;6.40;;;23.60;96.70;;;;;;5068377;28;20060;-80
2023/09/17 06:16:01;;;;;;;10.88;6.68;;;23.60;96.70;;;;;;5067645;28;20051;-80
2023/09/17 06:18:32;;;;;;;13.98;6.63;;;23.70;96.70;;;;;;5069177;28;20138;-79
2023/09/17 06:21:00;;;;;;;8.63;6.45;;;23.60;96.70;;;;;;5083840;28;20048;-79
2023/09/17 06:23:29;;;;;;;8.57;5.63;;;23.70;96.70;;;;;;5068725;28;20064;-84
2023/09/17 06:25:57;;;;;;;6.68;5.50;;;23.70;96.70;;;;;;5084484;28;20040;-82
2023/09/17 06:28:26;;;;;;;8.15;6.10;;;23.70;96.70;;;;;;5086124;28;20131;-81
2023/09/17 06:30:55;;;;;;;10.90;5.50;;;23.80;96.70;;;;;;5083236;28;20048;-80
2023/09/17 06:33:25;;;;;;;6.85;5.70;;;23.80;96.70;;;;;;5085000;28;20444;-81
2023/09/17 06:35:53;;;;;;;7.45;5.80;;;23.90;96.70;;;;;;5065504;28;20148;-82
2023/09/17 06:38:21;;;;;;;6.97;5.72;;;23.90;96.70;;;;;;5070919;28;20501;-81
2023/09/17 06:40:51;;;;;;;6.68;5.53;;;23.90;96.70;;;;;;5088672;28;20053;-79
2023/09/17 06:43:19;;;;;;;6.70;5.95;;;24.00;96.70;;;;;;5103878;28;20528;-80
2023/09/17 06:45:48;;;;;;;6.13;5.45;;;24.00;96.70;;;;;;5087734;28;20179;-79
2023/09/17 06:48:17;;;;;;;9.07;6.03;;;24.00;96.70;;;;;;5082832;28;20784;-82
2023/09/17 06:50:46;;;;;;;9.27;6.13;;;24.10;96.70;;;;;;5071726;28;20070;-81
2023/09/17 06:53:14;;;;;;;9.02;6.20;;;24.10;96.70;;;;;;5097096;28;20047;-81
2023/09/17 06:55:42;;;;;;;6.15;5.60;;;24.20;96.70;;;;;;5086502;28;20396;-81
2023/09/17 06:58:12;;;;;;;10.35;6.20;;;24.30;96.70;;;;;;5086294;28;20043;-78
2023/09/17 07:00:40;;;;;;;9.38;5.70;;;24.30;96.70;;;;;;5085591;28;20772;-81
2023/09/17 07:03:08;;;;;;;9.07;6.45;;;24.30;96.70;;;;;;5085373;28;20548;-83
2023/09/17 07:05:38;;;;;;;7.55;5.60;;;24.30;96.70;;;;;;5082438;28;20069;-83
2023/09/17 07:08:06;;;;;;;6.65;5.95;;;24.50;96.70;;;;;;5089163;28;20036;-85
2023/09/17 07:10:34;;;;;;;8.25;5.68;;;24.60;96.70;;;;;;5072767;28;20058;-82
2023/09/17 07:13:03;;;;;;;7.85;6.07;;;24.70;96.70;;;;;;5084560;28;20051;-82
2023/09/17 07:15:32;;;;;;;9.63;6.30;;;24.70;96.70;;;;;;5070825;28;20043;-83
2023/09/17 07:18:01;;;;;;;9.70;6.20;;;24.80;96.70;;;;;;5085738;28;20113;-84
2023/09/17 07:20:30;;;;;;;10.45;6.57;;;24.80;96.70;;;;;;5085379;28;20145;-84
2023/09/17 07:23:00;;;;;;;10.25;6.90;;;25.00;96.70;;;;;;5087698;28;20069;-80
2023/09/17 07:25:28;;;;;;;9.18;6.25;;;25.00;96.70;;;;;;5103634;28;20066;-83
2023/09/17 07:27:56;;;;;;;7.65;5.70;;;25.00;96.70;;;;;;5086139;28;20031;-81
2023/09/17 07:30:24;;;;;;;10.43;6.40;;;25.10;96.70;;;;;;5086984;28;20043;-81
2023/09/17 07:32:53;;;;;;;9.00;6.15;;;25.10;96.70;;;;;;5102353;28;20042;-80
2023/09/17 07:35:21;;;;;;;8.80;6.35;;;25.20;96.70;;;;;;5087590;28;20048;-81
2023/09/17 07:37:49;;;;;;;8.02;6.10;;;25.20;96.70;;;;;;5087066;28;20062;-83
2023/09/17 07:40:20;;;;;;;6.10;5.40;;;25.20;96.70;;;;;;5086077;28;20148;-80
2023/09/17 07:42:48;;;;;;;9.55;5.78;;;25.20;96.70;;;;;;5088204;28;20072;-81
2023/09/17 07:45:16;;;;;;;7.10;5.35;;;25.30;96.70;;;;;;5104675;28;20039;-80
2023/09/17 07:47:45;;;;;;;8.73;5.43;;;25.40;96.70;;;;;;5088355;28;20052;-83
2023/09/17 07:50:13;;;;;;;7.22;5.32;;;25.40;96.70;;;;;;5072763;28;20059;-81
2023/09/17 07:52:41;;;;;;;5.72;5.13;;;25.50;96.70;;;;;;5089175;28;20054;-83
2023/09/17 07:55:10;;;;;;;7.53;4.90;;;25.60;96.70;;;;;;5090706;28;20112;-82
2023/09/17 07:57:41;;;;;;;6.72;4.60;;;25.70;96.70;;;;;;5108000;28;20040;-85
2023/09/17 08:00:15;;;;;;;9.00;4.72;;;25.70;96.70;;;;;;5081093;28;20052;-81
2023/09/17 08:02:44;;;;;;;7.18;4.93;;;25.70;96.70;;;;;;5105066;28;20047;-81
2023/09/17 08:05:13;;;;;;;5.78;5.07;;;25.80;96.70;;;;;;5105342;28;20039;-84
2023/09/17 08:07:41;;;;;;;7.03;5.13;;;25.90;96.70;;;;;;5106657;28;20695;-81
2023/09/17 08:10:10;;;;;;;8.52;5.00;;;26.00;96.70;;;;;;5070895;28;20048;-83
2023/09/17 08:12:40;;;;;;;5.78;4.70;;;26.10;96.70;;;;;;5088871;28;20044;-84
2023/09/17 08:15:08;;;;;;;5.50;4.45;;;26.10;96.70;;;;;;5088359;28;20051;-81
2023/09/17 08:17:37;;;;;;;7.30;5.03;;;26.20;96.70;;;;;;5069502;28;20048;-83
2023/09/17 08:20:09;;;;;;;6.70;5.00;;;26.30;96.70;;;;;;5121369;27;20048;-83
2023/09/17 08:22:38;;;;;;;7.80;5.22;;;26.40;96.70;;;;;;5072121;28;20134;-82
2023/09/17 08:25:08;;;;;;;6.28;4.70;;;26.40;96.70;;;;;;5061447;28;20082;-83
2023/09/17 08:27:37;;;;;;;6.88;4.45;;;26.40;96.70;;;;;;5086915;28;20485;-82
2023/09/17 08:30:11;;;;;;;8.98;4.40;;;26.50;96.70;;;;;;5086243;28;20711;-82
2023/09/17 08:32:40;;;;;;;7.68;4.97;;;26.50;96.70;;;;;;5084880;28;20047;-80
2023/09/17 08:35:09;;;;;;;7.97;4.35;;;26.50;96.70;;;;;;5104356;28;20067;-81
2023/09/17 08:37:38;;;;;;;8.05;4.78;;;26.50;96.70;;;;;;5087233;28;20043;-81
2023/09/17 08:40:09;;;;;;;6.03;4.70;;;26.60;96.70;;;;;;5087132;28;20046;-82
2023/09/17 08:42:41;;;;;;;7.82;4.88;;;26.70;96.70;;;;;;5087199;28;20048;-79
2023/09/17 08:45:12;;;;;;;7.38;4.55;;;26.70;96.70;;;;;;5090496;28;20046;-83
2023/09/17 08:47:40;;;;;;;4.90;4.40;;;26.70;96.70;;;;;;5087703;28;20504;-83
2023/09/17 08:50:09;;;;;;;6.70;4.95;;;26.70;96.70;;;;;;5090613;28;20101;-85
2023/09/17 08:52:43;;;;;;;8.65;4.55;;;26.80;96.70;;;;;;5093112;28;20074;-83
2023/09/17 08:55:14;;;;;;;5.40;4.70;;;26.80;96.70;;;;;;5080004;28;20135;-83
2023/09/17 08:57:44;;;;;;;5.20;4.60;;;26.80;96.70;;;;;;5091472;28;20043;-83
2023/09/17 09:00:17;;;;;;;5.53;4.32;;;26.90;96.70;;;;;;5099331;28;20044;-81
2023/09/17 09:02:54;;;;;;;8.27;5.15;;;26.90;96.70;;;;;;5109811;28;20558;-81
2023/09/17 09:05:25;;;;;;;5.90;4.82;;;26.90;96.70;;;;;;5093257;28;20044;-84
2023/09/17 09:07:56;;;;;;;14.48;5.13;;;26.90;96.70;;;;;;5110970;28;20035;-81
2023/09/17 09:10:24;;;;;;;8.82;5.45;;;27.10;96.70;;;;;;5090818;28;20416;-79
2023/09/17 09:12:53;;;;;;;8.85;4.97;;;27.10;96.70;;;;;;5073849;28;20050;-81
2023/09/17 09:15:23;;;;;;;6.95;4.85;;;27.10;96.70;;;;;;5073961;28;20115;-82
2023/09/17 09:17:54;;;;;;;8.35;4.85;;;27.30;96.70;;;;;;5094592;28;20504;-80
2023/09/17 09:20:23;;;;;;;6.38;4.43;;;27.30;96.70;;;;;;5079118;28;20604;-80
2023/09/17 09:22:51;;;;;;;8.85;5.22;;;27.40;96.70;;;;;;5090047;28;20043;-78
2023/09/17 09:25:35;;;;;;;7.93;5.45;;;27.50;96.70;;;;;;5028493;28;20051;-81
2023/09/17 09:28:06;;;;;;;7.90;5.32;;;27.60;96.70;;;;;;5028602;28;20052;-80
2023/09/17 09:30:36;;;;;;;9.27;6.07;;;27.60;96.70;;;;;;5044125;28;20056;-82
2023/09/17 09:33:06;;;;;;;9.52;5.57;;;27.80;96.70;;;;;;5037532;28;20055;-79
2023/09/17 09:35:35;;;;;;;11.85;9.30;;;27.80;96.70;;;;;;5050341;28;20586;-80
2023/09/17 09:38:04;;;;;;;10.68;6.88;;;27.80;96.70;;;;;;5011370;28;20041;-80
2023/09/17 09:40:34;;;;;;;6.50;5.43;;;27.80;96.70;;;;;;5036504;28;20044;-84
2023/09/17 09:43:03;;;;;;;8.43;4.78;;;27.70;96.70;;;;;;5047322;28;20088;-83
2023/09/17 09:45:33;;;;;;;9.18;6.60;;;27.70;96.70;;;;;;5011262;28;20042;-80
2023/09/17 09:48:13;;;;;;;7.15;5.93;;;27.80;96.70;;;;;;5029639;28;20048;-82
2023/09/17 09:50:42;;;;;;;12.27;6.90;;;27.90;96.70;;;;;;5028565;28;20135;-79
2023/09/17 09:53:11;;;;;;;10.82;6.30;;;27.90;96.70;;;;;;5043776;28;20048;-80
2023/09/17 09:55:40;;;;;;;8.40;5.40;;;28.00;96.70;;;;;;5044728;28;20059;-80
2023/09/17 09:58:10;;;;;;;8.15;5.65;;;28.00;96.70;;;;;;5029717;28;20060;-80
2023/09/17 10:00:44;;;;;;;8.13;5.70;;;28.00;96.70;;;;;;5034402;28;20053;-81
2023/09/17 10:03:17;;;;;;;8.35;5.00;;;28.00;96.70;;;;;;5063062;28;20058;-82
2023/09/17 10:05:46;;;;;;;9.35;5.88;;;28.10;96.70;;;;;;5089122;28;20056;-81
2023/09/17 10:08:19;;;;;;;7.15;5.38;;;28.00;96.70;;;;;;5088533;28;20512;-79
2023/09/17 10:10:48;;;;;;;9.70;5.10;;;28.10;96.70;;;;;;5084137;28;20044;-79
2023/09/17 10:13:17;;;;;;;9.63;5.20;;;28.00;96.70;;;;;;5070575;28;20054;-77
2023/09/17 10:15:46;;;;;;;11.25;5.43;;;28.10;96.70;;;;;;5088153;28;20095;-77
2023/09/17 10:18:17;;;;;;;7.63;5.63;;;28.20;96.70;;;;;;5092439;28;20035;-83
2023/09/17 10:20:47;;;;;;;7.65;5.70;;;28.30;96.70;;;;;;5107182;28;20131;-81
2023/09/17 10:23:17;;;;;;;10.20;5.63;;;28.50;96.70;;;;;;5089046;28;20582;-81
2023/09/17 10:25:47;;;;;;;7.70;4.97;;;28.60;96.70;;;;;;5067483;28;20569;-80
2023/09/17 10:28:17;;;;;;;9.32;6.22;;;28.80;96.70;;;;;;5087876;28;20054;-80
2023/09/17 10:30:45;;;;;;;7.43;5.18;;;28.80;96.70;;;;;;5106259;28;20047;-81
2023/09/17 10:33:17;;;;;;;7.72;5.05;;;29.00;96.70;;;;;;5079900;28;20072;-79
2023/09/17 10:35:47;;;;;;;7.18;4.65;;;29.10;96.70;;;;;;5070459;28;20047;-79
2023/09/17 10:38:18;;;;;;;11.70;5.45;;;29.20;96.70;;;;;;5087112;28;20055;-78
2023/09/17 10:40:47;;;;;;;11.50;6.78;;;29.40;96.70;;;;;;5106322;28;20039;-81
2023/09/17 10:43:17;;;;;;;7.53;4.60;;;29.50;96.70;;;;;;5088266;28;20447;-80
2023/09/17 10:45:46;;;;;;;6.95;5.55;;;29.60;96.70;;;;;;5079611;28;20509;-80
2023/09/17 10:48:16;;;;;;;7.95;5.22;;;29.60;96.70;;;;;;5087820;28;20063;-81
2023/09/17 10:50:45;;;;;;;10.13;5.22;;;29.80;96.70;;;;;;5071605;28;20048;-80
2023/09/17 10:53:13;;;;;;;11.63;4.93;;;29.80;96.70;;;;;;5106458;28;20053;-79
2023/09/17 10:55:47;;;;;;;5.47;4.40;;;29.80;96.70;;;;;;5072746;28;20093;-82
2023/09/17 10:58:22;;;;;;;6.07;4.90;;;29.70;96.70;;;;;;5081665;28;20048;-83
2023/09/17 11:00:52;;;;;;;10.40;4.90;;;29.60;96.70;;;;;;5088058;28;20134;-81
2023/09/17 11:03:24;;;;;;;6.15;4.50;;;29.50;96.70;;;;;;5069788;28;20120;-78
2023/09/17 11:05:54;;;;;;;6.75;4.97;;;29.60;96.70;;;;;;5069275;28;20054;-79
2023/09/17 11:08:23;;;;;;;7.05;4.63;;;29.70;96.70;;;;;;5086336;28;20048;-79
2023/09/17 11:10:52;;;;;;;6.05;4.43;;;29.80;96.70;;;;;;5101475;28;20517;-79
2023/09/17 11:13:20;;;;;;;11.30;4.85;;;29.90;96.70;;;;;;5104675;28;20048;-79
2023/09/17 11:15:51;;;;;;;7.88;4.55;;;29.80;96.70;;;;;;5085847;28;20031;-79
2023/09/17 11:18:22;;;;;;;6.43;4.72;;;29.90;96.70;;;;;;5103267;28;20040;-77
2023/09/17 11:21:04;;;;;;;7.60;4.63;;;30.10;96.70;;;;;;5082672;28;20512;-79
2023/09/17 11:23:42;;;;;;;6.53;4.63;;;30.30;96.70;;;;;;5085960;28;20775;-79
2023/09/17 11:26:13;;;;;;;8.88;4.70;;;30.30;96.70;;;;;;5105535;28;20046;-80
2023/09/17 11:28:42;;;;;;;9.27;4.53;;;30.50;96.70;;;;;;5104272;28;20593;-78
2023/09/17 11:31:13;;;;;;;8.43;4.20;;;30.40;96.70;;;;;;5068916;28;20130;-78
2023/09/17 11:33:44;;;;;;;11.48;5.47;;;30.30;96.70;;;;;;5079212;28;20052;-78
2023/09/17 11:36:12;;;;;;;6.00;4.10;;;30.20;96.70;;;;;;5100845;28;20141;-78
2023/09/17 11:38:50;;;;;;;7.13;4.55;;;30.30;96.70;;;;;;5104825;28;20052;-78
2023/09/17 11:41:28;;;;;;;5.68;4.18;;;30.30;96.70;;;;;;5087036;28;20039;-78
2023/09/17 11:43:56;;;;;;;8.30;4.60;;;30.40;96.70;;;;;;5099012;28;20042;-78
2023/09/17 11:46:25;;;;;;;8.75;4.40;;;30.60;96.70;;;;;;5103426;28;20039;-78
2023/09/17 11:48:55;;;;;;;9.45;5.10;;;30.60;96.70;;;;;;5086715;28;20148;-78
2023/09/17 11:51:25;;;;;;;6.30;4.63;;;30.50;96.70;;;;;;5104487;28;20040;-78
2023/09/17 11:53:59;;;;;;;9.50;4.47;;;30.60;96.70;;;;;;5086548;28;20108;-78
2023/09/17 11:56:28;;;;;;;7.00;4.43;;;30.50;96.70;;;;;;5100740;28;20046;-79
2023/09/17 11:58:58;;;;;;;9.45;4.82;;;30.60;96.70;;;;;;5103599;28;20035;-78
2023/09/17 12:01:31;;;;;;;9.50;5.03;;;30.70;96.70;;;;;;5085869;28;20051;-80
2023/09/17 12:04:04;;;;;;;6.65;4.30;;;30.70;96.70;;;;;;5101799;28;20485;-79
2023/09/17 12:06:37;;;;;;;7.53;4.47;;;30.70;96.70;;;;;;5086032;28;20055;-78
2023/09/17 12:12:19;;;;;;;8.35;4.88;;;30.80;96.70;;;;;;4989163;28;20424;-78
2023/09/17 12:14:49;;;;;;;9.95;4.70;;;30.90;96.70;;;;;;4985210;28;20050;-78
2023/09/17 12:17:17;;;;;;;7.40;4.65;;;30.90;96.70;;;;;;4985211;28;20073;-78
2023/09/17 12:23:07;;;;;;;7.75;4.13;;;31.10;96.70;;;;;;5003970;28;20050;-79
2023/09/17 12:25:43;;;;;;;8.68;4.82;;;31.00;96.70;;;;;;4998903;28;20137;-79
2023/09/17 12:28:11;;;;;;;12.57;4.70;;;31.10;96.70;;;;;;5024296;28;20096;-79
2023/09/17 12:30:39;;;;;;;10.45;5.28;;;31.20;96.70;;;;;;5009049;28;20092;-77
2023/09/17 12:33:09;;;;;;;10.07;5.18;;;31.50;96.70;;;;;;4990134;28;20100;-78
2023/09/17 12:35:42;;;;;;;7.95;4.57;;;31.70;96.70;;;;;;5013553;28;20056;-77
2023/09/17 12:38:10;;;;;;;7.72;4.18;;;31.80;96.70;;;;;;5006626;28;20096;-78
2023/09/17 12:40:41;;;;;;;9.38;4.47;;;31.80;96.70;;;;;;5004205;28;20042;-78
2023/09/17 12:43:09;;;;;;;9.52;4.38;;;31.80;96.70;;;;;;5020111;28;20107;-79
2023/09/17 12:45:38;;;;;;;12.90;4.55;;;31.90;96.70;;;;;;5010675;28;20191;-79
2023/09/17 12:48:07;;;;;;;12.48;4.90;;;32.00;96.70;;;;;;5027805;28;20099;-79
2023/09/17 12:50:42;;;;;;;8.68;4.55;;;31.90;96.70;;;;;;5071526;28;20055;-82
2023/09/17 12:53:16;;;;;;;9.82;4.40;;;32.00;96.70;;;;;;5106258;28;20051;-82
2023/09/17 12:55:45;;;;;;;8.93;4.80;;;32.10;96.70;;;;;;5088282;28;20659;-80
2023/09/17 12:58:14;;;;;;;10.57;4.20;;;32.10;96.70;;;;;;5107683;28;20085;-80
2023/09/17 13:00:42;;;;;;;7.18;4.07;;;32.00;96.70;;;;;;5105195;28;20043;-82
2023/09/17 13:03:12;;;;;;;12.52;4.35;;;31.90;96.70;;;;;;5088679;28;20059;-81
2023/09/17 13:05:43;;;;;;;10.73;4.70;;;31.80;96.70;;;;;;5073123;28;20097;-81